• Join FlightAware (Why Join?)
  • Login
  • US Flag 
07:13AM EST


 

Airport Tracker/Info


-or-


 

Live Flight TrackerFlight Track Log ✈ DAL2033 ✈ 22-May-2013 ✈ KATL - KALB

Flight Track Log - Related Links

Times and Time Zones

All times are in EDT time to prevent confusion due to time zone crossing. See the DAL2033 flight status page for this flight to view local times or setup timezone preferences in your user account.

Time Position Orientation Groundspeed Altitude Reporting Facility
EDT Latitude Longitude Course Direction KTS MPH feet Rate Location/Type
03:30PM 33.6500 -84.4667 North 184 212 2,500  Level Atlanta TRACON
03:31PM 33.6833 -84.5500 296° West 267 307 4,500 2,520 Climbing Atlanta TRACON
03:32PM 33.8543 -84.1876 320° Northwest  Level FlightAware Approximate
03:32PM 33.7500 -84.5833 337° Northwest 303 349 7,900  Level Atlanta TRACON
03:33PM 33.9610 -84.2667 North  Level FlightAware Approximate
03:33PM 33.8600 -84.5167 27° Northeast 315 362 10,900  Level Atlanta Center
03:34PM 34.0914 -84.2667 North  Level FlightAware Approximate
03:34PM 33.9378 -84.4119 48° Northeast 351 404 13,400  Level Atlanta Center
03:35PM 34.2218 -84.2667 North  Level FlightAware Approximate
03:35PM 34.0442 -84.3647 20° North 367 422 15,700  Level Atlanta Center
03:36PM 34.1486 -84.3325 14° North 375 432 17,500 2,220 Climbing Atlanta Center
03:37PM 34.2636 -84.2950 15° North 405 466 20,200 2,460 Climbing Atlanta Center
03:38PM 34.3742 -84.2653 13° North 411 473 22,500 1,980 Climbing Atlanta Center
03:39PM 34.4892 -84.2378 11° North 411 473 24,200 1,200 Climbing Atlanta Center
03:40PM 34.6061 -84.2103 11° North 418 481 25,000 840 Climbing Atlanta Center
03:41PM 34.7272 -84.1828 11° North 424 488 25,900 1,020 Climbing Atlanta Center
03:42PM 34.8564 -84.1500 12° North 445 512 27,100 1,440 Climbing Atlanta Center
03:43PM 34.9858 -84.1200 11° North 464 534 28,800 1,500 Climbing Atlanta Center
03:44PM 35.1133 -84.0869 12° North 469 540 30,200 1,200 Climbing Atlanta Center
03:45PM 35.2383 -84.0567 11° North 469 540 31,300 1,020 Climbing Atlanta Center
03:46PM 35.3697 -84.0261 11° North 469 540 32,300 840 Climbing Atlanta Center
03:47PM 35.4972 -83.9953 11° North 469 540 33,000 300 Climbing Atlanta Center
03:48PM 35.6244 -83.9622 12° North 469 540 33,000  Level Atlanta Center
03:49PM 35.7536 -83.9339 10° North 469 540 33,000  Level Atlanta Center
03:50PM 35.8831 -83.9003 12° North 469 540 33,000  Level Atlanta Center
03:51PM 36.0144 -83.8617 13° North 469 540 33,000  Level Atlanta Center
03:52PM 36.1372 -83.8253 13° North 464 534 33,000  Level Atlanta Center
03:52PM 36.1831 -83.8103 15° North 469 540 33,000  Level Indianapolis Center
03:54PM 36.3106 -83.7725 13° North 470 541 33,000 240 Level Indianapolis Center
03:55PM 36.4389 -83.7383 12° North 473 544 33,500 420 Climbing Indianapolis Center
03:56PM 36.5747 -83.6906 16° North 491 565 33,900 240 Climbing Indianapolis Center
03:57PM 36.6881 -83.6008 32° Northeast 483 556 34,000  Climbing Indianapolis Center
03:58PM 36.7911 -83.4944 40° Northeast 479 551 34,000  Level Indianapolis Center
03:59PM 36.8953 -83.3839 40° Northeast 485 558 34,100 360 Climbing Indianapolis Center
04:00PM 36.9981 -83.2736 41° Northeast 482 555 34,800 420 Climbing Indianapolis Center
04:01PM 37.1183 -83.1461 40° Northeast 479 551 35,000 60 Climbing Indianapolis Center
04:02PM 37.2200 -83.0350 41° Northeast 480 552 35,000  Level Indianapolis Center
04:03PM 37.3225 -82.9231 41° Northeast 481 554 35,000  Level Indianapolis Center
04:04PM 37.4261 -82.8106 41° Northeast 487 560 35,000  Level Indianapolis Center
04:05PM 37.5267 -82.6986 41° Northeast 482 555 35,000  Level Indianapolis Center
04:06PM 37.6278 -82.5872 41° Northeast 481 554 35,000  Level Indianapolis Center
04:07PM 37.7286 -82.4756 41° Northeast 482 555 35,000  Level Indianapolis Center
04:08PM 37.8292 -82.3642 41° Northeast 479 551 35,000  Level Indianapolis Center
04:09PM 37.9417 -82.2300 43° Northeast 478 550 35,000  Level Indianapolis Center
04:10PM 38.0306 -82.1150 46° Northeast 481 554 35,000  Level Indianapolis Center
04:11PM 38.1231 -81.9947 46° Northeast 479 551 35,000  Level Indianapolis Center
04:12PM 38.2153 -81.8731 46° Northeast 478 550 35,000  Level Indianapolis Center
04:13PM 38.3083 -81.7536 45° Northeast 477 549 35,000  Level Indianapolis Center
04:14PM 38.4192 -81.6053 46° Northeast 483 556 35,000  Level Indianapolis Center
04:15PM 38.5044 -81.4778 49° Northeast 479 551 35,000  Level Indianapolis Center
04:16PM 38.5561 -81.3275 66° East 473 544 35,000  Level Indianapolis Center
04:17PM 38.6039 -81.1753 68° East 470 541 35,000  Level Indianapolis Center
04:18PM 38.6478 -81.0189 70° East 472 543 35,000  Level Indianapolis Center
04:19PM 38.7028 -80.8364 69° East 462 532 35,000  Level Indianapolis Center
04:20PM 38.7492 -80.6842 69° East 461 531 35,000  Level Indianapolis Center
04:21PM 38.8019 -80.5333 66° East 465 535 35,000  Level Indianapolis Center
04:22PM 38.8650 -80.3875 61° Northeast 470 541 35,000  Level Indianapolis Center
04:23PM 38.9297 -80.2456 60° Northeast 465 535 35,000  Level Indianapolis Center
04:24PM 39.0197 -80.1236 46° Northeast 473 544 35,000  Level Indianapolis Center
04:25PM 39.1225 -80.0114 40° Northeast 471 542 35,000  Level Indianapolis Center
04:26PM 39.2406 -79.8861 39° Northeast 470 541 35,000  Level Indianapolis Center
04:27PM 39.2583 -79.8728 30° Northeast 464 534 35,000  Level Cleveland Center
04:28PM 39.3597 -79.7617 40° Northeast 469 540 35,000  Level Cleveland Center
04:29PM 39.4589 -79.6556 40° Northeast 469 540 35,000  Level Cleveland Center
04:30PM 39.5558 -79.5464 41° Northeast 464 534 35,000  Level Cleveland Center
04:31PM 39.6569 -79.4372 40° Northeast 464 534 35,000  Level Cleveland Center
04:32PM 39.7581 -79.3247 41° Northeast 469 540 35,000  Level Cleveland Center
04:33PM 39.8589 -79.2200 39° Northeast 469 540 35,000  Level Cleveland Center
04:34PM 39.9575 -79.1042 42° Northeast 469 540 35,000  Level Cleveland Center
04:35PM 40.0600 -78.9772 43° Northeast 464 534 35,000  Level Cleveland Center
04:36PM 40.1606 -78.8661 40° Northeast 464 534 35,000  Level Cleveland Center
04:37PM 40.2589 -78.7547 41° Northeast 464 534 35,000  Level Cleveland Center
04:38PM 40.3572 -78.6431 41° Northeast 464 534 35,000  Level Cleveland Center
04:39PM 40.4594 -78.5311 40° Northeast 470 541 35,000  Level Cleveland Center
04:40PM 40.5572 -78.4158 42° Northeast 475 547 35,000  Level Cleveland Center
04:42PM 40.7294 -78.2150 41° Northeast 493 567 35,000  Level New York Center
04:43PM 40.8108 -78.0783 52° Northeast 480 552 35,000  Level New York Center
04:44PM 40.8900 -77.9414 53° Northeast 474 545 35,000  Level New York Center
04:45PM 40.9692 -77.8039 53° Northeast 464 534 35,000  Level New York Center
04:46PM 41.0539 -77.6750 49° Northeast 464 534 35,000  Level New York Center
04:47PM 41.1467 -77.5494 46° Northeast 464 534 35,000  Level New York Center
04:48PM 41.2386 -77.4317 44° Northeast 464 534 35,000 -480 Level New York Center
04:49PM 41.3269 -77.3050 47° Northeast 464 534 34,100 -840 Descending New York Center
04:50PM 41.4172 -77.1811 46° Northeast 464 534 33,400 -840 Descending New York Center
04:51PM 41.5206 -77.0383 46° Northeast 474 545 32,500 -900 Descending New York Center
04:52PM 41.6128 -76.9083 46° Northeast 474 545 31,600 -840 Descending New York Center
04:53PM 41.7047 -76.7806 46° Northeast 474 545 30,900 -780 Descending New York Center
04:54PM 41.7967 -76.6497 47° Northeast 480 552 30,100 -1,020 Descending New York Center
04:55PM 41.9394 -76.4539 46° Northeast 517 595 28,300 -1,440 Descending Boston Center
04:56PM 42.0339 -76.3203 46° Northeast 497 572 26,500 -2,040 Descending Boston Center
04:57PM 42.1258 -76.1886 47° Northeast 487 560 24,300 -1,260 Descending Boston Center
04:58PM 42.2075 -76.0478 52° Northeast 480 552 24,000 -180 Descending Boston Center
04:59PM 42.2997 -75.8986 50° Northeast 469 540 24,000  Level Boston Center
05:00PM 42.3681 -75.7731 54° Northeast 464 534 24,000  Level Boston Center
05:01PM 42.4308 -75.6189 61° Northeast 464 534 24,000 -120 Level Boston Center
05:02PM 42.4750 -75.4550 70° East 464 534 23,800 -1,380 Descending Boston Center
05:03PM 42.5292 -75.2914 66° East 464 534 21,300 -2,460 Descending Boston Center
05:04PM 42.5853 -75.1361 64° Northeast 464 534 18,900 -2,700 Descending Boston Center
05:05PM 42.6189 -75.0331 66° East 462 532 17,000 -2,400 Descending Boston Center
05:05PM 42.6344 -74.9942 61° Northeast 440 506 16,500 -2,520 Descending Boston Center
05:06PM 42.6811 -74.8578 65° Northeast 411 473 14,000 -2,700 Descending Boston Center
05:07PM 42.7211 -74.7406 65° Northeast 404 465 11,900 -2,340 Descending Boston Center
05:07PM 42.7322 -74.6986 70° East 411 473 11,300 -900 Descending Boston Center
05:08PM 42.7675 -74.5953 65° Northeast 385 443 11,000 -300 Descending Boston Center
05:08PM 42.7742 -74.5814 57° Northeast 388 447 11,000 -420 Level Boston Center
05:09PM 42.8075 -74.4750 67° East 346 398 10,600 -600 Descending Boston Center
05:09PM 42.8161 -74.4469 67° East 354 407 10,400 -1,140 Descending Boston Center
05:10PM 42.8469 -74.3631 63° Northeast 321 369 9,500 -1,200 Descending Boston Center
05:10PM 42.8492 -74.3489 78° East 325 374 9,200 -1,620 Descending Boston Center
05:11PM 42.8736 -74.2506 71° East 309 356 7,900 -1,680 Descending Boston Center
05:12PM 42.8858 -74.1458 81° East 304 350 6,400 -1,680 Descending Boston Center
05:12PM 42.8881 -74.1206 83° East 306 352 5,900 -1,380 Descending Boston Center
05:13PM 42.8978 -74.0358 81° East 296 341 5,000 -900 Descending Boston Center
05:13PM 42.9022 -74.0047 79° East 287 330 5,000 -300 Level Boston Center
05:14PM 42.9117 -73.9397 79° East 243 280 4,700 -600 Descending Boston Center
05:14PM 42.9117 -73.9228 90° East 257 296 4,400 -1,500 Descending Boston Center
05:15PM 42.9231 -73.8492 78° East 243 280 3,200 -1,440 Descending Boston Center
05:15PM 42.9089 -73.8264 130° Southeast 235 270 3,000 -600 Descending Boston Center
05:16PM 42.8778 -73.8114 161° South 177 204 2,600 -600 Descending Boston Center